Time;durP1;ratioP1;P1;durP2;ratioP2;P2;SDS_P1;SDS_P2;PMS_P1;PMS_P2;Temp;Humidity;BMP_temperature;BMP_pressure;BME280_temperature;BME280_humidity;BME280_pressure;Samples;Min_cycle;Max_cycle;Signal;HPM_P1;HPM_P2
2024/02/01 00:01:40;;;;;;;19.23;13.83;;;8.50;99.90;;;;;;4959075;28;20839;-72
2024/02/01 00:04:07;;;;;;;14.67;13.13;;;8.50;99.90;;;;;;4973140;28;20481;-71
2024/02/01 00:06:35;;;;;;;13.03;11.83;;;8.50;99.90;;;;;;4973405;28;20454;-72
2024/02/01 00:09:03;;;;;;;22.20;13.37;;;8.60;99.90;;;;;;4973444;28;20459;-72
2024/02/01 00:11:30;;;;;;;13.90;12.60;;;8.60;99.90;;;;;;4977638;28;20452;-72
2024/02/01 00:13:57;;;;;;;13.93;12.73;;;8.60;99.90;;;;;;4959983;28;20498;-72
2024/02/01 00:16:24;;;;;;;15.17;13.77;;;8.60;99.90;;;;;;4972822;28;20962;-73
2024/02/01 00:18:51;;;;;;;13.27;12.00;;;8.60;99.90;;;;;;4974919;28;20456;-72
2024/02/01 00:21:19;;;;;;;16.50;15.20;;;8.60;99.90;;;;;;4953503;28;20502;-72
2024/02/01 00:23:45;;;;;;;19.70;18.03;;;8.70;99.90;;;;;;4959206;28;20854;-72
2024/02/01 00:26:14;;;;;;;16.80;15.20;;;8.70;99.90;;;;;;4972037;28;20829;-72
2024/02/01 00:28:41;;;;;;;19.87;17.80;;;8.70;99.90;;;;;;4953707;28;20464;-72
2024/02/01 00:31:08;;;;;;;19.17;17.40;;;8.70;99.90;;;;;;4962418;28;20461;-72
2024/02/01 00:33:37;;;;;;;20.67;18.67;;;8.70;99.90;;;;;;4976457;28;20576;-72
2024/02/01 00:36:04;;;;;;;22.60;20.67;;;8.70;99.90;;;;;;4969348;28;20525;-72
2024/02/01 00:38:31;;;;;;;22.33;20.30;;;8.70;99.90;;;;;;4972944;28;20451;-72
2024/02/01 00:40:58;;;;;;;25.27;23.37;;;8.70;99.90;;;;;;4980233;28;20453;-72
2024/02/01 00:43:26;;;;;;;29.57;27.57;;;8.70;99.90;;;;;;4957149;28;20471;-72
2024/02/01 00:45:53;;;;;;;30.00;28.17;;;8.70;99.90;;;;;;4976561;28;20538;-72
2024/02/01 00:48:20;;;;;;;28.37;26.37;;;8.80;99.90;;;;;;4969513;28;20450;-72
2024/02/01 00:50:47;;;;;;;30.00;28.00;;;8.80;99.90;;;;;;4968426;28;20446;-72
2024/02/01 00:53:14;;;;;;;29.37;27.17;;;8.80;99.90;;;;;;4974519;28;20478;-72
2024/02/01 00:55:42;;;;;;;31.20;29.30;;;8.80;99.90;;;;;;4976289;28;20455;-73
2024/02/01 00:58:09;;;;;;;31.30;29.20;;;8.80;99.90;;;;;;4984574;28;20470;-72
2024/02/01 01:00:37;;;;;;;36.43;34.37;;;8.90;99.90;;;;;;4972993;28;20930;-72
2024/02/01 01:03:04;;;;;;;32.00;30.23;;;8.90;99.90;;;;;;4963300;28;20858;-72
2024/02/01 01:05:31;;;;;;;38.87;36.37;;;8.90;99.90;;;;;;4976067;28;20458;-73
2024/02/01 01:07:58;;;;;;;56.83;54.07;;;8.90;99.90;;;;;;4976619;28;20469;-72
2024/02/01 01:10:25;;;;;;;142.47;136.87;;;8.60;99.90;;;;;;4969277;28;20466;-74
2024/02/01 01:12:51;;;;;;;140.83;135.33;;;8.50;99.90;;;;;;4957754;28;20866;-75
2024/02/01 01:15:18;;;;;;;230.90;223.53;;;8.20;99.90;;;;;;4959234;28;20550;-76
2024/02/01 01:17:46;;;;;;;319.37;309.60;;;8.00;99.90;;;;;;4978780;28;20943;-75
2024/02/01 01:20:14;;;;;;;368.70;356.83;;;7.90;99.90;;;;;;4974151;28;20458;-75
2024/02/01 01:22:40;;;;;;;374.63;362.60;;;7.90;99.90;;;;;;4975736;28;20475;-74
2024/02/01 01:25:08;;;;;;;460.23;444.37;;;7.80;99.90;;;;;;4976164;28;20843;-74
2024/02/01 01:27:34;;;;;;;553.20;531.93;;;7.70;99.90;;;;;;4980325;28;20462;-75
2024/02/01 01:30:02;;;;;;;539.90;519.27;;;7.90;99.90;;;;;;4956552;28;20467;-76
2024/02/01 01:32:28;;;;;;;558.77;537.27;;;7.70;99.90;;;;;;4967655;28;20479;-74
2024/02/01 01:34:56;;;;;;;627.03;598.83;;;7.80;99.90;;;;;;4976956;28;20470;-74
2024/02/01 01:37:23;;;;;;;674.03;640.97;;;7.70;99.90;;;;;;4959060;28;20463;-76
2024/02/01 01:39:50;;;;;;;725.47;687.10;;;7.80;99.90;;;;;;4975372;28;20461;-75
2024/02/01 01:42:17;;;;;;;701.20;665.30;;;7.70;99.90;;;;;;4981777;28;21069;-75
2024/02/01 01:44:44;;;;;;;772.80;728.00;;;7.80;99.90;;;;;;4961790;28;20521;-75
2024/02/01 01:47:10;;;;;;;776.70;732.40;;;7.70;99.90;;;;;;4974989;28;20466;-75
2024/02/01 01:49:37;;;;;;;781.10;734.60;;;7.80;99.90;;;;;;4956143;28;20465;-76
2024/02/01 01:52:06;;;;;;;741.97;700.77;;;7.80;99.90;;;;;;4979737;28;20454;-76
2024/02/01 01:54:35;;;;;;;780.80;734.70;;;7.80;99.90;;;;;;4972310;28;20485;-76
2024/02/01 01:57:03;;;;;;;797.77;750.93;;;7.80;99.90;;;;;;4971283;28;20455;-76
2024/02/01 01:59:30;;;;;;;806.30;757.13;;;7.80;99.90;;;;;;4978809;28;20497;-75
2024/02/01 02:02:00;;;;;;;826.47;774.80;;;7.70;99.90;;;;;;4964324;28;20543;-75
2024/02/01 02:04:27;;;;;;;824.50;772.33;;;7.80;99.90;;;;;;4975186;28;20453;-76
2024/02/01 02:06:55;;;;;;;812.83;762.37;;;7.80;99.90;;;;;;4982288;28;20452;-75
2024/02/01 02:09:24;;;;;;;746.60;703.03;;;7.80;99.90;;;;;;4976193;28;20537;-75
2024/02/01 02:11:50;;;;;;;799.43;749.93;;;7.70;99.90;;;;;;4981832;28;20454;-75
2024/02/01 02:14:18;;;;;;;811.47;759.10;;;7.70;99.90;;;;;;4971658;28;21010;-75
2024/02/01 02:16:45;;;;;;;853.83;797.83;;;7.80;99.90;;;;;;4970837;28;20455;-75
2024/02/01 02:19:14;;;;;;;828.07;775.37;;;7.80;99.90;;;;;;4974707;28;20467;-74
2024/02/01 02:21:46;;;;;;;804.23;753.43;;;7.80;99.90;;;;;;4982849;28;20954;-75
2024/02/01 02:24:14;;;;;;;812.43;759.27;;;8.00;99.90;;;;;;4981384;28;20458;-75
2024/02/01 02:26:41;;;;;;;805.77;752.73;;;8.10;99.90;;;;;;4957720;28;20891;-74
2024/02/01 02:29:08;;;;;;;809.63;754.13;;;7.70;99.90;;;;;;4964640;28;20458;-75
2024/02/01 02:31:35;;;;;;;831.83;773.87;;;7.70;99.90;;;;;;4978994;28;20836;-75
2024/02/01 02:34:02;;;;;;;834.47;775.23;;;7.80;99.90;;;;;;4974467;28;20518;-74
2024/02/01 02:36:29;;;;;;;808.77;753.20;;;8.10;99.90;;;;;;4967089;28;20451;-75
2024/02/01 02:38:57;;;;;;;800.57;746.50;;;8.00;99.90;;;;;;4974694;28;20538;-75
2024/02/01 02:41:24;;;;;;;808.57;751.87;;;8.10;99.90;;;;;;4976935;28;20453;-75
2024/02/01 02:43:51;;;;;;;820.43;763.33;;;8.20;99.90;;;;;;4972646;28;20474;-75
2024/02/01 02:46:17;;;;;;;813.93;757.87;;;7.70;99.90;;;;;;4956668;28;20477;-75
2024/02/01 02:48:44;;;;;;;823.73;766.47;;;8.00;99.90;;;;;;4974132;28;20458;-76
2024/02/01 02:51:11;;;;;;;853.93;794.23;;;7.90;99.90;;;;;;4973881;28;20212;-77
2024/02/01 02:53:38;;;;;;;841.87;780.77;;;7.90;99.90;;;;;;4974197;28;20497;-76
2024/02/01 02:56:08;;;;;;;853.87;790.20;;;8.20;99.90;;;;;;4974011;28;20459;-73
2024/02/01 02:58:36;;;;;;;841.07;777.07;;;8.10;99.90;;;;;;4966570;28;20462;-74
2024/02/01 03:01:06;;;;;;;836.43;774.03;;;7.80;99.90;;;;;;4981831;28;20458;-76
2024/02/01 03:03:33;;;;;;;819.37;758.57;;;7.80;99.90;;;;;;4959873;28;20467;-76
2024/02/01 03:06:00;;;;;;;793.97;733.77;;;8.30;99.90;;;;;;4974108;28;20462;-76
2024/02/01 03:08:26;;;;;;;801.07;739.87;;;8.30;99.90;;;;;;4973165;28;21014;-76
2024/02/01 03:10:52;;;;;;;807.93;746.00;;;8.20;99.90;;;;;;4981683;28;20447;-76
2024/02/01 03:13:21;;;;;;;790.00;730.23;;;8.20;99.90;;;;;;4974194;28;20491;-77
2024/02/01 03:15:48;;;;;;;817.70;754.60;;;8.20;99.90;;;;;;4978798;28;20640;-76
2024/02/01 03:18:14;;;;;;;815.50;753.00;;;8.30;99.90;;;;;;4973816;28;20457;-76
2024/02/01 03:20:43;;;;;;;813.20;750.33;;;7.90;99.90;;;;;;4973581;28;20459;-77
2024/02/01 03:23:10;;;;;;;801.50;740.00;;;8.10;99.90;;;;;;4973503;28;20479;-76
2024/02/01 03:25:39;;;;;;;800.63;738.53;;;8.30;99.90;;;;;;4974014;28;20459;-77
2024/02/01 03:28:06;;;;;;;807.03;744.17;;;8.00;99.90;;;;;;4972774;28;20517;-76
2024/02/01 03:30:38;;;;;;;797.30;735.33;;;8.00;99.90;;;;;;4980690;28;20465;-77
2024/02/01 03:33:06;;;;;;;785.17;721.37;;;8.30;99.90;;;;;;4979500;28;20478;-77
2024/02/01 03:35:33;;;;;;;775.40;713.27;;;8.30;99.90;;;;;;4972209;28;20889;-76
2024/02/01 03:37:59;;;;;;;791.47;727.87;;;8.50;99.90;;;;;;4973470;28;20834;-76
2024/02/01 03:40:26;;;;;;;803.47;739.73;;;8.20;99.90;;;;;;4973012;28;20454;-77
2024/02/01 03:42:53;;;;;;;815.67;749.97;;;8.10;99.90;;;;;;4973445;28;20501;-76
2024/02/01 03:45:20;;;;;;;796.13;732.03;;;8.10;99.90;;;;;;4973252;28;20827;-76
2024/02/01 03:47:48;;;;;;;790.37;725.27;;;8.50;99.90;;;;;;4971046;28;20454;-76
2024/02/01 03:50:16;;;;;;;784.17;720.20;;;8.40;99.90;;;;;;4971412;28;20466;-77
2024/02/01 03:52:46;;;;;;;785.87;721.97;;;8.50;99.90;;;;;;4968245;28;20475;-76
2024/02/01 03:55:18;;;;;;;811.87;748.97;;;8.40;99.90;;;;;;4979472;28;20574;-76
2024/02/01 03:57:46;;;;;;;819.40;756.93;;;8.50;99.90;;;;;;4973299;28;20974;-77
2024/02/01 04:00:27;;;;;;;833.73;769.63;;;8.30;99.90;;;;;;4981311;28;20459;-77
2024/02/01 04:02:57;;;;;;;811.93;749.53;;;8.40;99.90;;;;;;4980008;28;20540;-77
2024/02/01 04:05:24;;;;;;;809.13;748.03;;;8.60;99.90;;;;;;4969419;28;20949;-77
2024/02/01 04:07:51;;;;;;;816.37;754.57;;;8.30;99.90;;;;;;4978314;28;20446;-77
2024/02/01 04:10:18;;;;;;;815.80;753.57;;;8.60;99.90;;;;;;4975251;28;20466;-76
2024/02/01 04:12:45;;;;;;;797.97;738.07;;;8.20;99.90;;;;;;4971244;28;20482;-76
2024/02/01 04:15:12;;;;;;;808.43;745.87;;;8.40;99.90;;;;;;4973072;28;20866;-76
2024/02/01 04:17:39;;;;;;;809.03;745.53;;;8.30;99.90;;;;;;4976899;28;20460;-76
2024/02/01 04:20:08;;;;;;;813.00;750.10;;;8.30;99.90;;;;;;4954821;28;20459;-76
2024/02/01 04:22:35;;;;;;;810.87;748.60;;;8.50;99.90;;;;;;4974027;28;20470;-76
2024/02/01 04:25:02;;;;;;;808.73;745.67;;;8.70;99.90;;;;;;4985135;28;20462;-76
2024/02/01 04:27:29;;;;;;;814.90;752.70;;;8.70;99.90;;;;;;4976411;28;20461;-76
2024/02/01 04:29:56;;;;;;;804.03;740.80;;;8.40;99.90;;;;;;4974206;28;20845;-72
2024/02/01 04:32:23;;;;;;;813.03;749.27;;;8.50;99.90;;;;;;4976941;28;20987;-77
2024/02/01 04:34:49;;;;;;;827.37;763.83;;;8.60;99.90;;;;;;4977515;28;20485;-76
2024/02/01 04:37:19;;;;;;;883.28;810.28;;;8.60;99.90;;;;;;4972517;28;20456;-74
2024/02/01 04:39:48;;;;;;;859.63;793.13;;;8.50;99.90;;;;;;4973847;28;20199;-76
2024/02/01 04:42:23;;;;;;;875.23;809.33;;;8.70;99.90;;;;;;4970113;28;20514;-76
2024/02/01 04:44:50;;;;;;;881.27;815.27;;;8.40;99.90;;;;;;4974460;28;20455;-74
2024/02/01 04:47:17;;;;;;;880.47;814.27;;;8.70;99.90;;;;;;4975875;28;20451;-76
2024/02/01 04:49:44;;;;;;;865.80;800.50;;;8.60;99.90;;;;;;4984390;28;20844;-76
2024/02/01 04:52:10;;;;;;;878.63;814.37;;;8.70;99.90;;;;;;4976759;28;20544;-76
2024/02/01 04:54:39;;;;;;;877.17;813.37;;;8.80;99.90;;;;;;4974470;28;20479;-76
2024/02/01 04:57:13;;;;;;;893.40;828.47;;;8.70;99.90;;;;;;4983247;28;20455;-77
2024/02/01 04:59:43;;;;;;;892.97;826.23;;;8.70;99.90;;;;;;4974655;28;20463;-76
2024/02/01 05:02:10;;;;;;;887.97;820.70;;;8.70;99.90;;;;;;4983501;28;20473;-77
2024/02/01 05:04:37;;;;;;;904.37;836.00;;;8.50;99.90;;;;;;4974914;28;20454;-76
2024/02/01 05:07:05;;;;;;;897.10;830.90;;;8.40;99.90;;;;;;4981788;28;20458;-72
2024/02/01 05:09:33;;;;;;;882.80;815.10;;;8.80;99.90;;;;;;4975585;28;20765;-75
2024/02/01 05:12:02;;;;;;;853.07;784.97;;;8.70;99.90;;;;;;4984036;28;20506;-78
2024/02/01 05:14:29;;;;;;;886.23;817.37;;;8.60;99.90;;;;;;4969945;28;20473;-77
2024/02/01 05:16:56;;;;;;;898.67;828.20;;;8.40;99.90;;;;;;4968796;28;20466;-76
2024/02/01 05:19:25;;;;;;;896.70;825.67;;;8.40;99.90;;;;;;4982938;28;20474;-78
2024/02/01 05:21:53;;;;;;;910.77;841.30;;;8.80;99.90;;;;;;4971316;28;20465;-77
2024/02/01 05:24:21;;;;;;;913.27;844.17;;;8.80;99.90;;;;;;4975759;28;20974;-77
2024/02/01 05:26:50;;;;;;;918.07;848.47;;;8.70;99.90;;;;;;4983239;28;20451;-77
2024/02/01 05:29:19;;;;;;;917.43;846.47;;;8.80;99.90;;;;;;4975572;28;20452;-77
2024/02/01 05:31:48;;;;;;;915.50;844.50;;;8.50;99.90;;;;;;4954530;28;20463;-76
2024/02/01 05:34:15;;;;;;;912.10;841.60;;;8.60;99.90;;;;;;4970088;28;20970;-77
2024/02/01 05:36:42;;;;;;;917.90;847.10;;;8.60;99.90;;;;;;4978092;28;20457;-77
2024/02/01 05:39:24;;;;;;;947.70;876.87;;;8.80;99.90;;;;;;4974279;28;20558;-77
2024/02/01 05:41:52;;;;;;;931.27;860.20;;;8.80;99.90;;;;;;4981396;28;20453;-77
2024/02/01 05:44:21;;;;;;;944.87;873.57;;;8.90;99.90;;;;;;4958501;28;20452;-77
2024/02/01 05:46:48;;;;;;;950.33;879.03;;;8.80;99.90;;;;;;4970232;28;20546;-77
2024/02/01 05:49:18;;;;;;;950.37;877.47;;;8.80;99.90;;;;;;4975083;28;20460;-78
2024/02/01 05:51:45;;;;;;;912.13;840.40;;;8.40;99.90;;;;;;4979430;28;20730;-77
2024/02/01 05:54:12;;;;;;;929.87;857.77;;;8.80;99.90;;;;;;4980405;28;20568;-77
2024/02/01 05:56:42;;;;;;;934.70;862.87;;;8.40;99.90;;;;;;4955774;28;20459;-77
2024/02/01 05:59:10;;;;;;;911.60;842.50;;;8.80;99.90;;;;;;4971551;28;20896;-75
2024/02/01 06:01:38;;;;;;;914.70;845.27;;;8.70;99.90;;;;;;4968097;28;20454;-77
2024/02/01 06:04:06;;;;;;;878.17;812.70;;;8.70;99.90;;;;;;4974536;28;20472;-77
2024/02/01 06:06:34;;;;;;;905.07;837.27;;;8.80;99.90;;;;;;4959784;28;20531;-73
2024/02/01 06:09:01;;;;;;;901.73;835.07;;;8.50;99.90;;;;;;4978407;28;20469;-76
2024/02/01 06:11:28;;;;;;;874.10;810.33;;;8.80;99.90;;;;;;4979530;28;20845;-77
2024/02/01 06:13:54;;;;;;;885.67;821.20;;;8.70;99.90;;;;;;4962263;28;20565;-77
2024/02/01 06:16:21;;;;;;;848.00;785.60;;;8.70;99.90;;;;;;4974323;28;20462;-76
2024/02/01 06:18:49;;;;;;;857.00;794.10;;;8.50;99.90;;;;;;4974271;28;20455;-76
2024/02/01 06:21:17;;;;;;;858.37;795.13;;;8.70;99.90;;;;;;4979305;28;20837;-76
2024/02/01 06:23:44;;;;;;;866.87;802.00;;;8.40;99.90;;;;;;4971141;28;20485;-76
2024/02/01 06:26:20;;;;;;;881.00;815.40;;;8.20;99.90;;;;;;4968086;28;20452;-74
2024/02/01 06:28:47;;;;;;;821.07;763.27;;;8.40;99.90;;;;;;4970659;28;20458;-76
2024/02/01 06:31:14;;;;;;;833.07;773.97;;;8.20;99.90;;;;;;4969935;28;20452;-76
2024/02/01 06:33:42;;;;;;;858.53;796.57;;;8.40;99.90;;;;;;4968684;28;20989;-76
2024/02/01 06:36:13;;;;;;;837.97;776.27;;;8.10;99.90;;;;;;4974448;28;20855;-76
2024/02/01 06:41:41;;;;;;;842.43;779.07;;;8.30;99.90;;;;;;4973482;28;20439;-76
2024/02/01 06:44:09;;;;;;;823.40;761.77;;;8.30;99.90;;;;;;4969654;28;20466;-76
2024/02/01 06:47:05;;;;;;;817.83;758.33;;;8.30;99.90;;;;;;4970690;28;20530;-76
2024/02/01 06:49:49;;;;;;;846.70;785.60;;;8.20;99.90;;;;;;4977942;28;20534;-73
2024/02/01 06:52:34;;;;;;;813.97;757.63;;;7.90;99.90;;;;;;4969094;28;20561;-74
2024/02/01 06:57:47;;;;;;;739.07;689.67;;;7.50;99.90;;;;;;4961484;28;20451;-74
2024/02/01 07:00:37;;;;;;;707.93;661.53;;;7.50;99.90;;;;;;4962841;28;20444;-74
2024/02/01 07:03:13;;;;;;;700.87;655.67;;;7.30;99.90;;;;;;4969971;28;20470;-76
2024/02/01 07:08:34;;;;;;;714.97;670.77;;;6.90;99.90;;;;;;4972771;28;20456;-76
2024/02/01 07:11:14;;;;;;;697.73;656.30;;;6.90;99.90;;;;;;4973536;28;20549;-76
2024/02/01 07:13:57;;;;;;;674.30;634.50;;;6.70;99.90;;;;;;4972248;28;20506;-76
2024/02/01 07:16:25;;;;;;;714.40;671.60;;;6.70;99.90;;;;;;4973376;28;20512;-75
2024/02/01 07:19:09;;;;;;;743.63;697.47;;;6.60;99.90;;;;;;4980437;28;20922;-75
2024/02/01 07:21:59;;;;;;;763.50;714.43;;;6.50;99.90;;;;;;4958781;28;20935;-75
2024/02/01 07:24:38;;;;;;;715.43;670.57;;;6.80;99.90;;;;;;4973267;28;20470;-76
2024/02/01 08:00:09;;;;;;;368.23;353.43;;;5.50;99.90;;;;;;4959002;28;20851;-72
2024/02/01 08:02:49;;;;;;;292.57;280.90;;;5.40;99.90;;;;;;4953553;28;20892;-72
2024/02/01 08:08:01;;;;;;;306.33;293.93;;;5.20;99.90;;;;;;4973483;28;20524;-72
2024/02/01 08:10:28;;;;;;;324.43;312.10;;;5.20;99.90;;;;;;4968573;28;20935;-72
2024/02/01 08:13:04;;;;;;;339.87;326.97;;;5.30;99.90;;;;;;4972348;28;20501;-72
2024/02/01 08:15:32;;;;;;;298.13;285.90;;;5.30;99.90;;;;;;4975890;28;21173;-72
2024/02/01 08:17:59;;;;;;;360.30;345.87;;;5.30;99.90;;;;;;4952671;28;20456;-72
2024/02/01 08:20:26;;;;;;;430.63;413.73;;;5.30;99.90;;;;;;4974475;28;20453;-71
2024/02/01 08:22:53;;;;;;;451.03;433.87;;;5.20;99.90;;;;;;4983627;28;20482;-71
2024/02/01 08:25:20;;;;;;;475.70;457.20;;;5.30;99.90;;;;;;4979530;28;20442;-71
2024/02/01 08:27:52;;;;;;;442.10;425.13;;;5.30;99.90;;;;;;4966519;28;20470;-71
2024/02/01 08:30:21;;;;;;;425.87;408.57;;;5.40;99.90;;;;;;4972392;28;20490;-71
2024/02/01 08:32:48;;;;;;;460.17;440.37;;;5.30;99.90;;;;;;4980394;28;20860;-71
2024/02/01 08:35:15;;;;;;;467.53;447.97;;;5.30;99.90;;;;;;4970767;28;20483;-71
2024/02/01 08:37:42;;;;;;;539.10;516.67;;;5.30;99.90;;;;;;4953216;28;20841;-71
2024/02/01 08:40:17;;;;;;;559.83;536.80;;;5.40;99.90;;;;;;4963015;28;20517;-72
2024/02/01 08:42:44;;;;;;;564.53;541.63;;;5.30;99.90;;;;;;4960230;28;20481;-71
2024/02/01 08:45:13;;;;;;;622.87;596.30;;;5.40;99.90;;;;;;4981665;28;20942;-71
2024/02/01 08:47:41;;;;;;;592.10;566.87;;;5.40;99.90;;;;;;4953291;28;20459;-71
2024/02/01 08:50:10;;;;;;;556.90;533.03;;;5.40;99.90;;;;;;4962028;28;20482;-71
2024/02/01 08:52:44;;;;;;;527.13;504.77;;;5.40;99.90;;;;;;4976940;28;20478;-71
2024/02/01 08:55:13;;;;;;;538.17;515.50;;;5.40;99.90;;;;;;4958332;28;20530;-71
2024/02/01 08:57:40;;;;;;;491.83;471.17;;;5.50;99.90;;;;;;4953468;28;20456;-71
2024/02/01 09:00:21;;;;;;;530.10;508.30;;;5.60;99.90;;;;;;4953129;28;20470;-71
2024/02/01 09:03:03;;;;;;;502.70;480.70;;;5.60;99.90;;;;;;4973225;28;20903;-71
2024/02/01 09:05:33;;;;;;;522.33;500.30;;;5.70;99.90;;;;;;4968272;28;20452;-71
2024/02/01 09:08:00;;;;;;;517.97;496.63;;;5.80;99.90;;;;;;4964877;28;20458;-73
2024/02/01 09:10:27;;;;;;;412.23;395.43;;;5.80;99.90;;;;;;4984226;28;20820;-71
2024/02/01 09:12:54;;;;;;;419.60;403.30;;;5.80;99.90;;;;;;4983875;28;20849;-71
2024/02/01 09:15:21;;;;;;;348.27;332.83;;;5.90;99.90;;;;;;4975644;28;20478;-70
2024/02/01 09:17:47;;;;;;;166.00;158.47;;;6.00;99.90;;;;;;4983652;28;20862;-70
2024/02/01 09:20:21;;;;;;;192.80;184.47;;;6.00;99.90;;;;;;4975355;28;20485;-70
2024/02/01 09:22:49;;;;;;;311.93;299.73;;;6.10;99.90;;;;;;4975651;28;20561;-70
2024/02/01 09:25:19;;;;;;;174.48;166.75;;;6.20;99.90;;;;;;4975232;28;20454;-71
2024/02/01 09:27:46;;;;;;;200.13;191.50;;;6.10;99.90;;;;;;4981081;28;20817;-70
2024/02/01 09:30:16;;;;;;;232.67;222.80;;;6.30;99.90;;;;;;4984284;28;20500;-70
2024/02/01 09:32:44;;;;;;;157.67;150.17;;;6.40;99.90;;;;;;4977214;28;20474;-71
2024/02/01 09:35:11;;;;;;;138.07;131.43;;;6.40;99.90;;;;;;4975389;28;20479;-71
2024/02/01 09:37:40;;;;;;;70.63;66.40;;;6.50;99.90;;;;;;4975668;28;20463;-70
2024/02/01 09:40:10;;;;;;;91.83;87.63;;;6.50;99.90;;;;;;4975185;28;20967;-70
2024/02/01 09:42:38;;;;;;;115.40;109.70;;;6.50;99.90;;;;;;4983212;28;20549;-72
2024/02/01 09:45:06;;;;;;;98.37;93.67;;;6.60;99.90;;;;;;4975060;28;20454;-72
2024/02/01 09:47:42;;;;;;;118.47;112.57;;;6.70;99.90;;;;;;4959687;28;20467;-72
2024/02/01 09:50:12;;;;;;;69.33;65.83;;;6.70;99.90;;;;;;4974459;28;20455;-72
2024/02/01 09:52:43;;;;;;;104.83;99.17;;;6.80;99.90;;;;;;4955225;28;20476;-72
2024/02/01 09:55:16;;;;;;;126.27;119.50;;;6.80;99.90;;;;;;4955600;28;20491;-72
2024/02/01 09:57:44;;;;;;;94.80;89.80;;;7.20;99.90;;;;;;4975479;28;20451;-72
2024/02/01 10:00:14;;;;;;;56.97;53.10;;;6.90;99.90;;;;;;4975140;28;20834;-72
2024/02/01 10:02:42;;;;;;;53.00;49.00;;;6.90;99.90;;;;;;4986050;28;20471;-73
2024/02/01 10:05:09;;;;;;;41.53;38.67;;;6.90;99.90;;;;;;4977013;28;20470;-72
2024/02/01 10:07:36;;;;;;;22.80;19.60;;;7.00;99.90;;;;;;4974480;28;20545;-72
2024/02/01 10:10:05;;;;;;;37.87;34.67;;;6.90;99.90;;;;;;4974271;28;20458;-72
2024/02/01 10:12:34;;;;;;;24.73;22.80;;;7.10;99.90;;;;;;4974038;28;20631;-72
2024/02/01 10:15:08;;;;;;;22.27;14.30;;;7.20;99.90;;;;;;4974414;28;20446;-72
2024/02/01 10:17:45;;;;;;;19.53;10.43;;;7.30;99.90;;;;;;4974346;28;20454;-72
2024/02/01 10:20:33;;;;;;;16.23;7.90;;;7.50;99.90;;;;;;4982210;28;20456;-73
2024/02/01 10:23:01;;;;;;;14.23;7.83;;;7.70;99.90;;;;;;4973795;28;20475;-72
2024/02/01 10:25:33;;;;;;;20.83;5.47;;;7.80;99.90;;;;;;4971071;28;20459;-71
2024/02/01 10:28:04;;;;;;;20.60;8.33;;;8.00;99.90;;;;;;4977763;28;20976;-71
2024/02/01 10:30:31;;;;;;;25.20;5.30;;;8.10;99.90;;;;;;4969837;28;20458;-70
2024/02/01 10:33:02;;;;;;;11.80;6.53;;;8.40;99.90;;;;;;4962887;28;20983;-71
2024/02/01 10:35:31;;;;;;;19.93;6.07;;;8.70;99.90;;;;;;4973642;28;20493;-71
2024/02/01 10:38:00;;;;;;;21.43;5.20;;;9.00;99.90;;;;;;4974889;28;20495;-70
2024/02/01 10:40:40;;;;;;;22.63;4.20;;;9.30;99.90;;;;;;4973635;28;20866;-71
2024/02/01 10:43:07;;;;;;;20.90;4.90;;;9.50;99.90;;;;;;4973554;28;20486;-70
2024/02/01 10:45:36;;;;;;;16.07;3.77;;;9.70;99.90;;;;;;4973829;28;20953;-71
2024/02/01 10:48:10;;;;;;;17.93;4.03;;;9.50;99.90;;;;;;4973600;28;20455;-71
2024/02/01 10:50:39;;;;;;;19.07;4.50;;;9.60;97.90;;;;;;4977436;28;20459;-70
2024/02/01 10:53:11;;;;;;;20.43;4.37;;;9.60;99.90;;;;;;4954233;28;20524;-70
2024/02/01 10:55:42;;;;;;;20.90;4.83;;;9.70;97.90;;;;;;4974848;28;20525;-70
2024/02/01 10:58:12;;;;;;;15.17;3.87;;;9.80;98.00;;;;;;4973337;28;20862;-71
2024/02/01 11:00:42;;;;;;;19.80;4.90;;;10.10;97.70;;;;;;4978037;28;20516;-71
2024/02/01 11:03:11;;;;;;;17.00;4.50;;;9.80;96.50;;;;;;4976092;28;20479;-72
2024/02/01 11:05:38;;;;;;;20.97;5.20;;;9.80;96.70;;;;;;4973279;28;20513;-71
2024/02/01 11:08:14;;;;;;;21.60;5.60;;;9.90;99.90;;;;;;4979423;28;20453;-70
2024/02/01 11:10:51;;;;;;;19.13;4.50;;;9.70;96.90;;;;;;4972077;28;20210;-71
2024/02/01 11:13:28;;;;;;;21.27;5.37;;;9.60;97.90;;;;;;4972009;28;20471;-72
2024/02/01 11:15:55;;;;;;;21.43;4.37;;;9.50;97.90;;;;;;4972438;28;20488;-71
2024/02/01 11:18:22;;;;;;;14.77;3.77;;;9.40;97.80;;;;;;4972274;28;20463;-70
2024/02/01 11:20:55;;;;;;;17.97;5.00;;;9.40;97.80;;;;;;4972756;28;20459;-70
2024/02/01 11:23:22;;;;;;;19.30;4.77;;;9.20;97.80;;;;;;4973108;28;20895;-70
2024/02/01 11:25:56;;;;;;;19.47;4.47;;;9.40;97.80;;;;;;4975680;28;20852;-70
2024/02/01 11:28:30;;;;;;;17.80;4.60;;;9.20;97.70;;;;;;4977577;28;20470;-70
2024/02/01 11:30:57;;;;;;;16.37;4.47;;;9.20;97.50;;;;;;4969986;28;20483;-70
2024/02/01 11:33:27;;;;;;;19.47;3.87;;;9.30;97.80;;;;;;4964447;28;20479;-72
2024/02/01 11:35:56;;;;;;;18.73;4.70;;;9.60;97.90;;;;;;4979439;28;21028;-70
2024/02/01 11:38:23;;;;;;;23.50;5.33;;;9.60;95.30;;;;;;4955422;28;20464;-69
2024/02/01 11:40:51;;;;;;;33.27;5.67;;;9.50;97.90;;;;;;4953695;28;20460;-70
2024/02/01 11:43:18;;;;;;;20.07;3.97;;;9.90;99.90;;;;;;4953773;28;20923;-70
2024/02/01 11:45:53;;;;;;;17.70;3.80;;;10.10;97.60;;;;;;4953862;28;20523;-70
2024/02/01 11:48:22;;;;;;;21.07;5.13;;;10.10;97.60;;;;;;4977680;28;20462;-70
2024/02/01 11:50:53;;;;;;;16.73;4.07;;;9.40;94.50;;;;;;4959545;28;21016;-70
2024/02/01 11:53:21;;;;;;;21.93;4.30;;;9.10;96.60;;;;;;4979010;28;20537;-70
2024/02/01 11:55:47;;;;;;;20.13;4.80;;;9.10;97.70;;;;;;4953819;28;20490;-70
2024/02/01 11:58:18;;;;;;;17.03;4.03;;;9.00;97.70;;;;;;4964254;28;20463;-70
2024/02/01 12:00:47;;;;;;;17.30;4.10;;;9.40;97.80;;;;;;4970623;28;20462;-70
2024/02/01 12:03:14;;;;;;;23.57;4.43;;;9.80;94.70;;;;;;4979738;28;20570;-70
2024/02/01 12:05:44;;;;;;;11.07;3.07;;;10.00;92.50;;;;;;4958751;28;20462;-70
2024/02/01 12:08:11;;;;;;;15.10;4.67;;;10.60;77.50;;;;;;4979978;28;20457;-70
2024/02/01 12:10:39;;;;;;;21.47;5.40;;;10.70;77.70;;;;;;4953516;28;20967;-70
2024/02/01 12:13:06;;;;;;;21.33;4.33;;;10.90;77.80;;;;;;4961611;28;20905;-70
2024/02/01 12:15:36;;;;;;;18.77;4.40;;;11.40;78.20;;;;;;4976806;28;20554;-70
2024/02/01 12:18:08;;;;;;;21.03;4.10;;;11.20;78.00;;;;;;4969507;28;20459;-71
2024/02/01 12:20:35;;;;;;;15.90;3.43;;;11.20;70.10;;;;;;4976964;28;20464;-70
2024/02/01 12:23:03;;;;;;;15.40;4.47;;;11.30;75.70;;;;;;4961411;28;20553;-70
2024/02/01 12:25:35;;;;;;;26.20;4.73;;;11.30;78.10;;;;;;4965516;28;20451;-70
2024/02/01 12:28:03;;;;;;;20.27;5.00;;;11.60;78.30;;;;;;4972576;28;20869;-71
2024/02/01 12:30:31;;;;;;;19.20;3.90;;;11.70;78.50;;;;;;4977400;28;20451;-70
2024/02/01 12:32:59;;;;;;;19.33;4.20;;;11.80;76.00;;;;;;4958627;28;20493;-71
2024/02/01 12:35:26;;;;;;;15.70;4.83;;;11.60;75.10;;;;;;4969405;28;20463;-70
2024/02/01 12:37:53;;;;;;;14.57;3.53;;;11.70;64.00;;;;;;4959572;28;20454;-70
2024/02/01 12:40:20;;;;;;;20.00;3.40;;;11.90;63.30;;;;;;4972193;28;20455;-71
2024/02/01 12:42:48;;;;;;;23.43;6.00;;;11.60;64.00;;;;;;4984177;28;20471;-71
2024/02/01 12:45:18;;;;;;;29.43;4.53;;;10.70;69.70;;;;;;4977521;28;20455;-71
2024/02/01 12:47:48;;;;;;;19.93;5.13;;;10.70;76.20;;;;;;4981889;28;20505;-70
2024/02/01 12:50:16;;;;;;;11.90;3.03;;;10.40;74.30;;;;;;4977090;28;20455;-70
2024/02/01 12:52:43;;;;;;;17.67;4.33;;;10.40;77.30;;;;;;4968959;28;20476;-70
2024/02/01 12:55:10;;;;;;;11.67;2.70;;;10.00;76.60;;;;;;4956338;28;20460;-70
2024/02/01 12:57:39;;;;;;;16.17;3.90;;;9.70;77.70;;;;;;4956479;28;20597;-70
2024/02/01 13:00:10;;;;;;;19.87;4.90;;;9.50;77.50;;;;;;4964212;28;20982;-70
2024/02/01 13:02:38;;;;;;;21.60;6.60;;;9.40;77.40;;;;;;4975519;28;20900;-70
2024/02/01 13:05:07;;;;;;;16.37;3.00;;;9.60;77.60;;;;;;4975672;28;20459;-69
2024/02/01 13:07:35;;;;;;;19.63;3.63;;;9.50;77.50;;;;;;4979338;28;20587;-70
2024/02/01 13:10:08;;;;;;;19.20;3.80;;;9.40;77.40;;;;;;4979132;28;20459;-70
2024/02/01 13:12:36;;;;;;;22.17;4.17;;;9.30;77.30;;;;;;4974726;28;20481;-70
2024/02/01 13:15:05;;;;;;;22.15;4.40;;;9.40;77.40;;;;;;4974023;28;20993;-70
2024/02/01 13:17:34;;;;;;;22.88;5.35;;;9.70;77.70;;;;;;4973518;28;20461;-70
2024/02/01 13:20:02;;;;;;;19.77;3.67;;;10.30;77.20;;;;;;4974351;28;20203;-71